createdAt,value
2023-03-16T00:00:49.975Z,2.67
2023-03-16T00:01:50.798Z,2.81
2023-03-16T00:02:50.972Z,2.73
2023-03-16T00:03:50.515Z,2.82
2023-03-16T00:04:51.414Z,2.77
2023-03-16T00:05:51.413Z,2.91
2023-03-16T00:06:51.913Z,2.98
2023-03-16T00:07:51.178Z,2.91
2023-03-16T00:08:51.338Z,2.94
2023-03-16T00:09:51.525Z,2.92
2023-03-16T00:10:52.456Z,2.98
2023-03-16T00:11:52.415Z,3.06
2023-03-16T00:12:52.063Z,2.95
2023-03-16T00:13:52.240Z,2.97
2023-03-16T00:14:52.445Z,3.05
2023-03-16T00:15:52.620Z,2.89
2023-03-16T00:16:52.782Z,2.92
2023-03-16T00:17:52.966Z,3.00
2023-03-16T00:18:53.135Z,2.89
2023-03-16T00:19:53.328Z,2.94
2023-03-16T00:20:53.458Z,2.88
2023-03-16T00:21:53.588Z,2.87
2023-03-16T00:22:53.773Z,2.92
2023-03-16T00:23:53.920Z,2.97
2023-03-16T00:24:54.100Z,2.97
2023-03-16T00:25:54.920Z,2.95
2023-03-16T00:26:54.426Z,2.88
2023-03-16T00:27:56.918Z,2.84
2023-03-16T00:28:54.776Z,2.81
2023-03-16T00:29:54.976Z,2.84
2023-03-16T00:30:55.962Z,2.91
2023-03-16T00:31:55.408Z,2.94
2023-03-16T00:32:55.483Z,2.92
2023-03-16T00:33:55.658Z,2.76
2023-03-16T00:34:56.425Z,2.76
2023-03-16T00:35:57.456Z,2.76
2023-03-16T00:36:56.235Z,2.76
2023-03-16T00:37:56.418Z,2.67
2023-03-16T00:38:57.459Z,2.66
2023-03-16T00:39:56.825Z,2.63
2023-03-16T00:40:59.317Z,2.64
2023-03-16T00:41:57.041Z,2.67
2023-03-16T00:42:58.912Z,2.61
2023-03-16T00:43:57.412Z,2.67
2023-03-16T00:44:57.840Z,2.61
2023-03-16T00:45:57.834Z,2.64
2023-03-16T00:46:58.476Z,2.66
2023-03-16T00:47:58.155Z,2.66
2023-03-16T00:48:58.340Z,2.55
2023-03-16T00:49:58.965Z,2.63
2023-03-16T00:50:58.733Z,2.63
2023-03-16T00:51:59.413Z,2.63
2023-03-16T00:52:59.790Z,2.56
2023-03-16T00:53:59.297Z,2.61
2023-03-16T00:54:59.473Z,2.49
2023-03-16T00:55:59.664Z,2.59
2023-03-16T00:56:59.804Z,2.64
2023-03-16T00:57:59.954Z,2.61
2023-03-16T00:59:00.118Z,2.55
2023-03-16T01:00:00.267Z,2.64
2023-03-16T01:01:00.445Z,2.58
2023-03-16T01:02:00.606Z,2.66
2023-03-16T01:03:01.441Z,2.67
2023-03-16T01:04:00.951Z,2.73
2023-03-16T01:05:01.956Z,2.69
2023-03-16T01:06:01.353Z,2.73
2023-03-16T01:07:01.538Z,2.77
2023-03-16T01:08:01.684Z,2.58
2023-03-16T01:09:01.972Z,2.77
2023-03-16T01:10:01.995Z,2.70
2023-03-16T01:11:02.958Z,2.71
2023-03-16T01:12:02.312Z,2.69
2023-03-16T01:13:03.443Z,2.66
2023-03-16T01:14:03.415Z,2.69
2023-03-16T01:15:03.426Z,2.70
2023-03-16T01:16:04.918Z,2.77
2023-03-16T01:17:03.247Z,2.69
2023-03-16T01:18:03.321Z,2.76
2023-03-16T01:19:03.469Z,2.79
2023-03-16T01:20:03.650Z,2.69
2023-03-16T01:21:04.411Z,2.71
2023-03-16T01:22:03.941Z,2.69
2023-03-16T01:23:04.116Z,2.76
2023-03-16T01:24:04.857Z,2.81
2023-03-16T01:25:04.542Z,2.89
2023-03-16T01:26:04.686Z,2.85
2023-03-16T01:27:04.831Z,2.82
2023-03-16T01:28:05.091Z,2.89
2023-03-16T01:29:06.131Z,2.82
2023-03-16T01:30:05.790Z,2.91
2023-03-16T01:31:06.151Z,2.91
2023-03-16T01:32:05.570Z,2.94
2023-03-16T01:33:05.814Z,2.88
2023-03-16T01:34:05.886Z,2.98
2023-03-16T01:35:06.061Z,2.94
2023-03-16T01:36:06.239Z,2.98
2023-03-16T01:37:06.411Z,2.92
2023-03-16T01:38:06.562Z,2.94
2023-03-16T01:39:06.740Z,2.87
2023-03-16T01:40:06.971Z,2.87
2023-03-16T01:41:07.106Z,2.88
2023-03-16T01:42:07.260Z,2.87
2023-03-16T01:43:07.444Z,2.77
2023-03-16T01:44:07.604Z,2.88
2023-03-16T01:45:07.806Z,2.79
2023-03-16T01:46:07.917Z,2.85
2023-03-16T01:47:08.974Z,2.85
2023-03-16T01:48:08.246Z,2.87
2023-03-16T01:49:08.413Z,2.91
2023-03-16T01:50:08.643Z,2.77
2023-03-16T01:51:08.977Z,2.88
2023-03-16T01:52:09.025Z,2.91
2023-03-16T01:53:09.986Z,2.87
2023-03-16T01:54:09.361Z,2.84
2023-03-16T01:55:09.550Z,2.89
2023-03-16T01:56:09.700Z,2.89
2023-03-16T01:57:09.960Z,2.87
2023-03-16T01:58:12.438Z,2.85
2023-03-16T01:59:10.969Z,2.71
2023-03-16T02:00:11.299Z,2.76
2023-03-16T02:01:11.595Z,2.81
2023-03-16T02:02:11.429Z,2.87
2023-03-16T02:03:12.937Z,2.88
2023-03-16T02:04:11.983Z,2.97
2023-03-16T02:05:11.979Z,2.92
2023-03-16T02:06:11.485Z,2.98
2023-03-16T02:07:11.662Z,3.00
2023-03-16T02:08:13.444Z,2.98
2023-03-16T02:09:12.079Z,2.98
2023-03-16T02:10:12.973Z,3.00
2023-03-16T02:11:12.972Z,2.98
2023-03-16T02:12:12.470Z,3.00
2023-03-16T02:13:12.646Z,3.07
2023-03-16T02:14:12.790Z,3.06
2023-03-16T02:15:14.525Z,3.10
2023-03-16T02:16:13.200Z,3.12
2023-03-16T02:17:13.972Z,3.05
2023-03-16T02:18:13.570Z,3.03
2023-03-16T02:19:13.716Z,2.97
2023-03-16T02:20:15.438Z,3.05
2023-03-16T02:21:14.009Z,3.06
2023-03-16T02:22:14.157Z,3.05
2023-03-16T02:23:14.324Z,3.00
2023-03-16T02:24:14.481Z,2.97
2023-03-16T02:25:14.628Z,2.98
2023-03-16T02:26:15.442Z,3.00
2023-03-16T02:27:14.948Z,3.00
2023-03-16T02:28:15.144Z,3.00
2023-03-16T02:29:15.313Z,2.95
2023-03-16T02:30:15.521Z,3.00
2023-03-16T02:31:16.455Z,2.98
2023-03-16T02:32:16.476Z,3.03
2023-03-16T02:33:16.044Z,3.00
2023-03-16T02:34:16.149Z,2.97
2023-03-16T02:35:16.949Z,3.02
2023-03-16T02:36:16.513Z,2.97
2023-03-16T02:37:16.722Z,2.95
2023-03-16T02:38:16.888Z,3.00
2023-03-16T02:39:17.980Z,3.00
2023-03-16T02:40:17.297Z,3.02
2023-03-16T02:41:18.483Z,3.00
2023-03-16T02:42:17.619Z,2.98
2023-03-16T02:43:17.768Z,2.98
2023-03-16T02:44:17.957Z,2.98
2023-03-16T02:45:18.151Z,2.94
2023-03-16T02:46:18.392Z,2.92
2023-03-16T02:47:18.585Z,3.00
2023-03-16T02:48:18.713Z,3.00
2023-03-16T02:49:18.862Z,3.02
2023-03-16T02:50:19.011Z,2.89
2023-03-16T02:51:19.179Z,3.00
2023-03-16T02:52:19.348Z,2.97
2023-03-16T02:53:19.501Z,2.97
2023-03-16T02:54:19.648Z,2.97
2023-03-16T02:55:19.796Z,3.06
2023-03-16T02:56:20.940Z,3.07
2023-03-16T02:57:20.100Z,2.97
2023-03-16T02:58:20.281Z,2.88
2023-03-16T02:59:20.932Z,3.06
2023-03-16T03:00:21.591Z,2.98
2023-03-16T03:01:20.730Z,2.98
2023-03-16T03:02:20.896Z,2.89
2023-03-16T03:03:22.040Z,2.95
2023-03-16T03:04:21.808Z,2.97
2023-03-16T03:05:21.985Z,3.02
2023-03-16T03:06:22.444Z,2.97
2023-03-16T03:07:21.849Z,2.94
2023-03-16T03:08:22.819Z,2.95
2023-03-16T03:09:22.238Z,2.97
2023-03-16T03:10:23.947Z,2.97
2023-03-16T03:11:22.567Z,2.95
2023-03-16T03:12:22.728Z,2.97
2023-03-16T03:13:22.897Z,2.95
2023-03-16T03:14:23.084Z,2.95
2023-03-16T03:15:23.952Z,2.95
2023-03-16T03:16:23.491Z,2.94
2023-03-16T03:17:23.653Z,2.89
2023-03-16T03:18:23.797Z,2.95
2023-03-16T03:19:24.024Z,2.94
2023-03-16T03:20:24.212Z,2.94
2023-03-16T03:21:24.405Z,2.94
2023-03-16T03:22:24.582Z,2.92
2023-03-16T03:23:24.792Z,2.87
2023-03-16T03:24:24.974Z,2.84
2023-03-16T03:25:25.137Z,2.81
2023-03-16T03:26:26.019Z,2.82
2023-03-16T03:27:26.530Z,2.87
2023-03-16T03:28:25.693Z,2.74
2023-03-16T03:29:26.446Z,2.88
2023-03-16T03:30:26.339Z,2.92
2023-03-16T03:31:27.280Z,2.91
2023-03-16T03:32:26.419Z,2.92
2023-03-16T03:33:27.456Z,2.87
2023-03-16T03:34:26.837Z,2.76
2023-03-16T03:35:27.024Z,2.85
2023-03-16T03:36:27.517Z,2.95
2023-03-16T03:37:27.397Z,2.81
2023-03-16T03:38:27.556Z,2.76
2023-03-16T03:39:28.494Z,2.85
2023-03-16T03:40:28.209Z,2.88
2023-03-16T03:41:28.114Z,2.88
2023-03-16T03:42:28.278Z,2.79
2023-03-16T03:43:28.452Z,2.97
2023-03-16T03:44:28.600Z,2.84
2023-03-16T03:45:28.831Z,2.97
2023-03-16T03:46:29.081Z,2.91
2023-03-16T03:47:29.209Z,2.94
2023-03-16T03:48:29.384Z,2.95
2023-03-16T03:49:29.575Z,2.89
2023-03-16T03:50:30.607Z,2.94
2023-03-16T03:51:29.851Z,2.92
2023-03-16T03:52:30.949Z,2.94
2023-03-16T03:53:30.956Z,2.97
2023-03-16T03:54:30.402Z,2.91
2023-03-16T03:55:30.548Z,2.91
2023-03-16T03:56:30.713Z,2.97
2023-03-16T03:57:30.875Z,2.95
2023-03-16T03:58:31.033Z,2.95
2023-03-16T03:59:31.219Z,3.02
2023-03-16T04:00:31.376Z,2.94
2023-03-16T04:01:31.551Z,2.95
2023-03-16T04:02:31.883Z,2.92
2023-03-16T04:03:31.978Z,2.92
2023-03-16T04:04:32.048Z,3.00
2023-03-16T04:05:32.229Z,2.92
2023-03-16T04:06:33.954Z,2.97
2023-03-16T04:07:32.550Z,3.02
2023-03-16T04:08:33.504Z,3.00
2023-03-16T04:09:33.496Z,3.02
2023-03-16T04:10:33.514Z,3.07
2023-03-16T04:11:33.953Z,3.02
2023-03-16T04:12:33.451Z,3.06
2023-03-16T04:13:33.584Z,3.10
2023-03-16T04:14:36.956Z,2.97
2023-03-16T04:15:33.941Z,3.02
2023-03-16T04:16:34.153Z,3.07
2023-03-16T04:17:34.353Z,3.13
2023-03-16T04:18:36.204Z,3.06
2023-03-16T04:19:35.469Z,3.16
2023-03-16T04:20:36.471Z,3.06
2023-03-16T04:21:35.068Z,3.00
2023-03-16T04:22:35.229Z,3.03
2023-03-16T04:23:35.963Z,3.09
2023-03-16T04:24:35.584Z,3.03
2023-03-16T04:25:35.766Z,3.06
2023-03-16T04:26:35.912Z,3.06
2023-03-16T04:27:37.824Z,3.05
2023-03-16T04:28:36.171Z,3.09
2023-03-16T04:29:36.338Z,3.09
2023-03-16T04:30:36.535Z,3.09
2023-03-16T04:31:36.731Z,3.06
2023-03-16T04:32:36.892Z,3.13
2023-03-16T04:33:37.058Z,3.16
2023-03-16T04:34:38.498Z,3.16
2023-03-16T04:35:37.484Z,3.06
2023-03-16T04:36:37.540Z,3.15
2023-03-16T04:37:37.727Z,3.18
2023-03-16T04:38:37.944Z,3.09
2023-03-16T04:39:38.962Z,3.12
2023-03-16T04:40:38.255Z,3.16
2023-03-16T04:41:38.404Z,3.16
2023-03-16T04:42:38.562Z,3.13
2023-03-16T04:43:38.714Z,3.20
2023-03-16T04:44:38.903Z,3.20
2023-03-16T04:45:39.049Z,3.15
2023-03-16T04:46:39.270Z,3.18
2023-03-16T04:47:39.395Z,3.16
2023-03-16T04:48:39.574Z,3.23
2023-03-16T04:49:39.747Z,3.24
2023-03-16T04:50:40.473Z,3.18
2023-03-16T04:51:41.005Z,3.21
2023-03-16T04:52:40.259Z,3.21
2023-03-16T04:53:41.020Z,3.27
2023-03-16T04:54:41.362Z,3.28
2023-03-16T04:55:40.854Z,3.27
2023-03-16T04:56:41.722Z,3.28
2023-03-16T04:57:41.969Z,3.31
2023-03-16T04:58:41.332Z,3.34
2023-03-16T04:59:42.466Z,3.27
2023-03-16T05:00:41.593Z,3.34
2023-03-16T05:01:41.856Z,3.25
2023-03-16T05:02:42.452Z,3.33
2023-03-16T05:03:43.098Z,3.30
2023-03-16T05:04:42.366Z,3.39
2023-03-16T05:05:44.531Z,3.42
2023-03-16T05:06:42.673Z,3.43
2023-03-16T05:07:43.501Z,3.34
2023-03-16T05:08:43.000Z,3.40
2023-03-16T05:09:43.163Z,3.36
2023-03-16T05:10:44.004Z,3.42
2023-03-16T05:11:44.014Z,3.33
2023-03-16T05:12:43.635Z,3.39
2023-03-16T05:13:44.505Z,3.39
2023-03-16T05:14:44.003Z,3.39
2023-03-16T05:15:44.179Z,3.34
2023-03-16T05:16:44.287Z,3.34
2023-03-16T05:17:44.474Z,3.24
2023-03-16T05:18:44.651Z,3.28
2023-03-16T05:19:45.479Z,3.28
2023-03-16T05:20:44.997Z,3.30
2023-03-16T05:21:45.168Z,3.42
2023-03-16T05:22:45.971Z,3.36
2023-03-16T05:23:45.503Z,3.34
2023-03-16T05:24:46.508Z,3.25
2023-03-16T05:25:47.192Z,3.31
2023-03-16T05:26:48.009Z,3.30
2023-03-16T05:27:46.246Z,3.33
2023-03-16T05:28:47.468Z,3.28
2023-03-16T05:29:47.513Z,3.30
2023-03-16T05:30:46.823Z,3.39
2023-03-16T05:31:46.864Z,3.20
2023-03-16T05:32:47.141Z,3.27
2023-03-16T05:33:47.312Z,3.25
2023-03-16T05:34:47.457Z,3.36
2023-03-16T05:35:47.660Z,3.42
2023-03-16T05:36:48.507Z,3.39
2023-03-16T05:37:48.053Z,3.31
2023-03-16T05:38:48.286Z,3.31
2023-03-16T05:39:49.471Z,3.39
2023-03-16T05:40:49.023Z,3.33
2023-03-16T05:41:48.805Z,3.33
2023-03-16T05:42:49.966Z,3.39
2023-03-16T05:43:49.984Z,3.42
2023-03-16T05:44:50.142Z,3.40
2023-03-16T05:45:50.485Z,3.43
2023-03-16T05:46:49.717Z,3.34
2023-03-16T05:47:49.820Z,3.39
2023-03-16T05:48:50.008Z,3.33
2023-03-16T05:49:51.985Z,3.31
2023-03-16T05:50:50.364Z,3.44
2023-03-16T05:51:50.583Z,3.36
2023-03-16T05:52:51.516Z,3.40
2023-03-16T05:53:52.481Z,3.28
2023-03-16T05:54:51.148Z,3.42
2023-03-16T05:55:51.324Z,3.30
2023-03-16T05:56:51.502Z,3.31
2023-03-16T05:57:51.710Z,3.34
2023-03-16T05:58:51.879Z,3.34
2023-03-16T05:59:52.926Z,3.40
2023-03-16T06:00:53.187Z,3.34
2023-03-16T06:01:52.993Z,3.42
2023-03-16T06:02:52.628Z,3.36
2023-03-16T06:03:53.590Z,3.30
2023-03-16T06:04:52.938Z,3.30
2023-03-16T06:05:54.010Z,3.36
2023-03-16T06:06:53.289Z,3.42
2023-03-16T06:07:53.485Z,3.40
2023-03-16T06:08:53.674Z,3.28
2023-03-16T06:09:53.837Z,3.34
2023-03-16T06:10:53.983Z,3.36
2023-03-16T06:11:55.977Z,3.39
2023-03-16T06:12:55.978Z,3.53
2023-03-16T06:13:55.030Z,3.42
2023-03-16T06:14:55.492Z,3.50
2023-03-16T06:15:55.047Z,3.60
2023-03-16T06:16:55.141Z,3.54
2023-03-16T06:17:55.978Z,3.61
2023-03-16T06:18:58.493Z,3.60
2023-03-16T06:19:55.594Z,3.64
2023-03-16T06:20:56.483Z,3.62
2023-03-16T06:21:57.578Z,3.58
2023-03-16T06:22:57.480Z,3.58
2023-03-16T06:23:56.242Z,3.54
2023-03-16T06:24:57.052Z,3.50
2023-03-16T06:25:56.550Z,3.57
2023-03-16T06:26:56.727Z,3.70
2023-03-16T06:27:57.485Z,3.64
2023-03-16T06:28:57.048Z,3.64
2023-03-16T06:29:58.050Z,3.64
2023-03-16T06:30:57.412Z,3.71
2023-03-16T06:31:58.551Z,3.78
2023-03-16T06:32:58.572Z,3.76
2023-03-16T06:33:58.117Z,3.67
2023-03-16T06:34:58.257Z,3.71
2023-03-16T06:35:58.472Z,3.78
2023-03-16T06:36:59.978Z,3.90
2023-03-16T06:37:59.486Z,3.80
2023-03-16T06:38:58.989Z,3.94
2023-03-16T06:39:59.537Z,3.96
2023-03-16T06:41:00.470Z,3.96
2023-03-16T06:41:59.470Z,3.89
2023-03-16T06:43:00.481Z,3.90
2023-03-16T06:43:59.737Z,3.80
2023-03-16T06:44:59.912Z,3.94
2023-03-16T06:46:00.170Z,3.92
2023-03-16T06:47:00.224Z,3.88
2023-03-16T06:48:00.366Z,4.03
2023-03-16T06:49:01.048Z,4.01
2023-03-16T06:50:01.985Z,4.01
2023-03-16T06:51:00.863Z,3.98
2023-03-16T06:52:00.998Z,4.01
2023-03-16T06:53:01.117Z,4.10
2023-03-16T06:54:02.015Z,4.22
2023-03-16T06:55:01.591Z,4.24
2023-03-16T06:56:01.662Z,4.40
2023-03-16T06:57:01.831Z,4.64
2023-03-16T06:58:02.488Z,4.80
2023-03-16T06:59:02.147Z,5.20
2023-03-16T07:00:02.873Z,5.35
2023-03-16T07:01:04.019Z,5.35
2023-03-16T07:02:03.044Z,5.89
2023-03-16T07:03:03.838Z,6.35
2023-03-16T07:04:03.564Z,6.73
2023-03-16T07:05:04.035Z,7.41
2023-03-16T07:06:03.324Z,7.84
2023-03-16T07:07:03.520Z,7.42
2023-03-16T07:08:03.783Z,7.78
2023-03-16T07:09:06.366Z,7.62
2023-03-16T07:10:04.008Z,7.13
2023-03-16T07:11:06.854Z,6.29
2023-03-16T07:12:04.360Z,5.88
2023-03-16T07:13:05.576Z,5.57
2023-03-16T07:14:04.768Z,5.43
2023-03-16T07:15:04.980Z,5.30
2023-03-16T07:16:05.855Z,5.20
2023-03-16T07:17:06.119Z,5.17
2023-03-16T07:18:05.435Z,5.28
2023-03-16T07:19:05.672Z,5.22
2023-03-16T07:20:06.358Z,5.23
2023-03-16T07:21:06.040Z,5.23
2023-03-16T07:22:06.221Z,5.13
2023-03-16T07:23:06.990Z,5.23
2023-03-16T07:24:07.501Z,5.16
2023-03-16T07:25:07.543Z,5.23
2023-03-16T07:26:08.565Z,5.25
2023-03-16T07:27:07.089Z,5.27
2023-03-16T07:28:07.997Z,5.25
2023-03-16T07:29:08.035Z,5.27
2023-03-16T07:30:07.562Z,5.40
2023-03-16T07:31:07.750Z,5.41
2023-03-16T07:32:08.091Z,5.37
2023-03-16T07:33:08.218Z,5.23
2023-03-16T07:34:08.215Z,5.16
2023-03-16T07:35:08.419Z,5.23
2023-03-16T07:36:09.575Z,5.20
2023-03-16T07:37:09.063Z,5.12
2023-03-16T07:38:09.027Z,5.05
2023-03-16T07:39:09.243Z,5.19
2023-03-16T07:40:09.586Z,5.10
2023-03-16T07:41:09.644Z,5.01
2023-03-16T07:42:10.495Z,4.92
2023-03-16T07:43:10.097Z,4.86
2023-03-16T07:44:10.300Z,4.91
2023-03-16T07:45:10.517Z,4.88
2023-03-16T07:46:11.518Z,4.92
2023-03-16T07:47:10.841Z,4.91
2023-03-16T07:48:11.022Z,4.86
2023-03-16T07:49:12.007Z,4.89
2023-03-16T07:50:11.398Z,4.86
2023-03-16T07:51:12.504Z,4.84
2023-03-16T07:52:12.496Z,4.80
2023-03-16T07:53:12.541Z,4.88
2023-03-16T07:54:12.206Z,4.96
2023-03-16T07:55:12.402Z,4.89
2023-03-16T07:56:12.606Z,4.88
2023-03-16T07:57:12.773Z,4.98
2023-03-16T07:58:13.870Z,4.98
2023-03-16T07:59:13.179Z,4.98
2023-03-16T08:00:14.053Z,4.98
2023-03-16T08:01:14.508Z,5.02
2023-03-16T08:02:13.848Z,5.14
2023-03-16T08:03:14.566Z,5.05
2023-03-16T08:04:14.107Z,5.14
2023-03-16T08:05:15.047Z,5.12
2023-03-16T08:06:14.466Z,5.14
2023-03-16T08:07:14.659Z,5.16
2023-03-16T08:08:15.546Z,5.17
2023-03-16T08:09:15.068Z,5.19
2023-03-16T08:10:15.139Z,5.22
2023-03-16T08:11:15.314Z,5.17
2023-03-16T08:12:15.498Z,5.09
2023-03-16T08:13:16.565Z,5.09
2023-03-16T08:14:15.825Z,5.16
2023-03-16T08:15:15.956Z,5.19
2023-03-16T08:16:16.199Z,5.22
2023-03-16T08:17:16.286Z,5.31
2023-03-16T08:18:18.024Z,5.28
2023-03-16T08:19:16.677Z,5.31
2023-03-16T08:20:16.873Z,5.40
2023-03-16T08:21:17.081Z,5.35
2023-03-16T08:22:18.051Z,5.35
2023-03-16T08:23:18.024Z,5.50
2023-03-16T08:24:19.523Z,5.46
2023-03-16T08:25:17.923Z,5.49
2023-03-16T08:26:20.013Z,5.48
2023-03-16T08:27:19.011Z,5.60
2023-03-16T08:28:19.011Z,5.66
2023-03-16T08:29:19.057Z,5.74
2023-03-16T08:30:19.511Z,5.74
2023-03-16T08:31:19.064Z,5.86
2023-03-16T08:32:19.112Z,5.91
2023-03-16T08:33:21.243Z,5.96
2023-03-16T08:34:19.485Z,6.10
2023-03-16T08:35:19.659Z,6.22
2023-03-16T08:36:19.858Z,6.38
2023-03-16T08:37:20.071Z,6.59
2023-03-16T08:38:20.276Z,6.72
2023-03-16T08:39:21.061Z,6.87
2023-03-16T08:40:20.613Z,6.90
2023-03-16T08:41:21.552Z,6.97
2023-03-16T08:42:21.014Z,6.89
2023-03-16T08:43:21.180Z,6.91
2023-03-16T08:44:21.402Z,6.71
2023-03-16T08:45:21.613Z,6.89
2023-03-16T08:46:21.830Z,6.91
2023-03-16T08:47:22.550Z,7.12
2023-03-16T08:48:23.022Z,7.13
2023-03-16T08:49:22.433Z,7.23
2023-03-16T08:50:23.554Z,6.95
2023-03-16T08:51:22.817Z,6.68
2023-03-16T08:52:23.119Z,6.62
2023-03-16T08:53:24.046Z,6.59
2023-03-16T08:54:23.349Z,6.72
2023-03-16T08:55:24.051Z,6.63
2023-03-16T08:56:23.730Z,6.71
2023-03-16T08:57:24.516Z,6.79
2023-03-16T08:58:25.054Z,6.61
2023-03-16T08:59:30.209Z,6.62
2023-03-16T09:00:26.587Z,6.65
2023-03-16T09:01:24.637Z,6.53
2023-03-16T09:02:26.568Z,6.40
2023-03-16T09:03:25.550Z,6.35
2023-03-16T09:04:25.393Z,6.32
2023-03-16T09:05:25.567Z,6.30
2023-03-16T09:06:28.021Z,6.26
2023-03-16T09:07:26.570Z,6.30
2023-03-16T09:08:25.993Z,6.44
2023-03-16T09:09:26.196Z,6.65
2023-03-16T09:10:26.652Z,6.65
2023-03-16T09:11:26.567Z,6.66
2023-03-16T09:12:26.767Z,6.61
2023-03-16T09:13:27.515Z,6.61
2023-03-16T09:14:27.066Z,6.66
2023-03-16T09:15:28.250Z,6.62
2023-03-16T09:16:27.476Z,6.59
2023-03-16T09:17:27.959Z,6.59
2023-03-16T09:18:27.739Z,6.56
2023-03-16T09:19:30.640Z,6.66
2023-03-16T09:20:30.041Z,6.77
2023-03-16T09:21:30.066Z,6.66
2023-03-16T09:22:29.026Z,6.73
2023-03-16T09:23:28.569Z,6.80
2023-03-16T09:24:29.074Z,6.80
2023-03-16T09:25:29.762Z,6.68
2023-03-16T09:26:30.070Z,6.63
2023-03-16T09:27:29.252Z,6.66
2023-03-16T09:28:30.056Z,6.51
2023-03-16T09:29:29.603Z,6.53
2023-03-16T09:30:30.886Z,6.51
2023-03-16T09:31:30.625Z,6.40
2023-03-16T09:32:30.188Z,6.36
2023-03-16T09:33:30.379Z,6.36
2023-03-16T09:34:31.506Z,6.11
2023-03-16T09:35:32.821Z,6.18
2023-03-16T09:36:30.835Z,6.07
2023-03-16T09:37:44.460Z,6.32
2023-03-16T09:38:33.151Z,6.35
2023-03-16T09:39:31.346Z,6.35
2023-03-16T09:40:32.197Z,6.32
2023-03-16T09:41:32.730Z,6.28
2023-03-16T09:42:32.562Z,6.26
2023-03-16T09:43:32.114Z,6.18
2023-03-16T09:44:32.571Z,6.18
2023-03-16T09:45:32.899Z,6.32
2023-03-16T09:46:34.998Z,6.35
2023-03-16T09:47:32.860Z,6.35
2023-03-16T09:48:33.020Z,6.26
2023-03-16T09:49:33.207Z,6.40
2023-03-16T09:50:47.080Z,6.26
2023-03-16T09:51:35.622Z,6.29
2023-03-16T09:52:33.728Z,6.30
2023-03-16T09:53:33.906Z,6.36
2023-03-16T09:54:35.026Z,6.16
2023-03-16T09:55:34.290Z,6.13
2023-03-16T09:56:34.511Z,6.22
2023-03-16T09:57:35.594Z,6.26
2023-03-16T09:58:34.860Z,6.35
2023-03-16T09:59:35.522Z,6.38
2023-03-16T10:00:36.030Z,6.44
2023-03-16T10:01:36.310Z,6.47
2023-03-16T10:02:35.470Z,6.29
2023-03-16T10:03:35.707Z,6.36
2023-03-16T10:04:35.786Z,6.54
2023-03-16T10:05:37.576Z,6.65
2023-03-16T10:06:37.031Z,6.51
2023-03-16T10:07:37.026Z,6.62
2023-03-16T10:08:37.528Z,6.66
2023-03-16T10:09:38.537Z,6.69
2023-03-16T10:10:36.880Z,6.84
2023-03-16T10:11:37.029Z,6.90
2023-03-16T10:12:38.028Z,6.91
2023-03-16T10:13:37.372Z,7.02
2023-03-16T10:14:38.165Z,6.99
2023-03-16T10:15:37.679Z,7.04
2023-03-16T10:16:37.864Z,7.04
2023-03-16T10:17:37.988Z,6.99
2023-03-16T10:18:38.253Z,7.23
2023-03-16T10:19:39.036Z,7.42
2023-03-16T10:20:38.520Z,7.49
2023-03-16T10:21:38.654Z,7.47
2023-03-16T10:22:39.571Z,7.49
2023-03-16T10:23:40.893Z,7.42
2023-03-16T10:24:40.977Z,7.45
2023-03-16T10:25:40.374Z,7.49
2023-03-16T10:26:39.496Z,7.38
2023-03-16T10:27:39.658Z,7.34
2023-03-16T10:28:39.823Z,7.37
2023-03-16T10:29:40.577Z,7.50
2023-03-16T10:30:41.441Z,7.56
2023-03-16T10:31:40.390Z,7.66
2023-03-16T10:32:40.535Z,7.79
2023-03-16T10:33:40.667Z,7.89
2023-03-16T10:34:40.856Z,7.94
2023-03-16T10:35:41.088Z,8.15
2023-03-16T10:36:41.213Z,8.32
2023-03-16T10:37:41.279Z,8.42
2023-03-16T10:38:42.079Z,8.66
2023-03-16T10:39:42.574Z,8.81
2023-03-16T10:40:43.546Z,8.84
2023-03-16T10:41:43.536Z,8.86
2023-03-16T10:42:43.039Z,8.69
2023-03-16T10:43:43.096Z,8.48
2023-03-16T10:44:43.077Z,8.39
2023-03-16T10:45:42.786Z,8.33
2023-03-16T10:46:44.206Z,8.51
2023-03-16T10:47:44.041Z,8.65
2023-03-16T10:48:43.909Z,8.78
2023-03-16T10:49:44.105Z,8.88
2023-03-16T10:50:43.628Z,8.88
2023-03-16T10:51:43.811Z,8.87
2023-03-16T10:52:44.548Z,8.75
2023-03-16T10:53:44.184Z,8.71
2023-03-16T10:54:46.046Z,8.68
2023-03-16T10:55:44.544Z,8.72
2023-03-16T10:56:44.695Z,8.71
2023-03-16T10:57:44.865Z,8.69
2023-03-16T10:58:45.096Z,8.54
2023-03-16T10:59:45.240Z,8.51
2023-03-16T11:00:45.397Z,8.48
2023-03-16T11:01:45.552Z,8.54
2023-03-16T11:02:47.084Z,8.68
2023-03-16T11:03:45.830Z,8.76
2023-03-16T11:04:46.636Z,8.66
2023-03-16T11:05:46.138Z,8.47
2023-03-16T11:06:47.089Z,8.51
2023-03-16T11:07:46.454Z,8.33
2023-03-16T11:08:46.629Z,8.28
2023-03-16T11:09:46.786Z,8.17
2023-03-16T11:10:55.495Z,8.22
2023-03-16T11:11:49.169Z,8.29
2023-03-16T11:12:47.314Z,8.39
2023-03-16T11:13:47.509Z,8.50
2023-03-16T11:14:49.572Z,8.47
2023-03-16T11:15:48.554Z,8.42
2023-03-16T11:16:48.620Z,8.25
2023-03-16T11:17:48.918Z,8.25
2023-03-16T11:18:48.311Z,8.29
2023-03-16T11:19:48.653Z,8.36
2023-03-16T11:20:50.106Z,8.39
2023-03-16T11:21:48.880Z,8.32
2023-03-16T11:22:49.095Z,8.33
2023-03-16T11:23:49.284Z,8.42
2023-03-16T11:24:50.558Z,8.29
2023-03-16T11:25:50.125Z,8.17
2023-03-16T11:26:50.598Z,8.15
2023-03-16T11:27:49.995Z,8.18
2023-03-16T11:28:50.166Z,8.29
2023-03-16T11:29:51.100Z,8.39
2023-03-16T11:30:50.585Z,8.47
2023-03-16T11:31:51.668Z,8.47
2023-03-16T11:32:50.939Z,8.57
2023-03-16T11:33:50.960Z,8.53
2023-03-16T11:34:53.127Z,8.55
2023-03-16T11:35:58.681Z,8.40
2023-03-16T11:36:53.625Z,8.39
2023-03-16T11:37:53.061Z,8.32
2023-03-16T11:38:51.834Z,8.40
2023-03-16T11:39:52.123Z,8.30
2023-03-16T11:40:53.069Z,8.36
2023-03-16T11:41:52.361Z,8.20
2023-03-16T11:42:52.526Z,8.29
2023-03-16T11:43:52.746Z,8.14
2023-03-16T11:44:52.972Z,8.03
2023-03-16T11:45:53.214Z,8.08
2023-03-16T11:46:53.620Z,8.20
2023-03-16T11:47:53.508Z,8.15
2023-03-16T11:48:54.568Z,8.08
2023-03-16T11:49:53.842Z,8.17
2023-03-16T11:50:54.028Z,8.20
2023-03-16T11:51:54.227Z,8.21
2023-03-16T11:52:54.363Z,8.21
2023-03-16T11:53:54.523Z,8.12
2023-03-16T11:54:54.685Z,8.21
2023-03-16T11:55:54.858Z,8.15
2023-03-16T11:56:55.048Z,8.11
2023-03-16T11:57:55.226Z,8.29
2023-03-16T11:58:55.415Z,8.14
2023-03-16T12:00:01.233Z,8.28
2023-03-16T12:00:59.570Z,8.40
2023-03-16T12:02:00.730Z,8.62
2023-03-16T12:02:57.345Z,8.66
2023-03-16T12:03:56.508Z,8.66
2023-03-16T12:04:57.511Z,8.78
2023-03-16T12:05:56.692Z,8.83
2023-03-16T12:06:56.876Z,8.88
2023-03-16T12:07:57.603Z,8.97
2023-03-16T12:08:57.258Z,9.05
2023-03-16T12:09:58.570Z,9.12
2023-03-16T12:10:57.600Z,9.10
2023-03-16T12:11:58.569Z,9.18
2023-03-16T12:12:58.023Z,9.24
2023-03-16T12:13:59.062Z,9.28
2023-03-16T12:14:59.099Z,9.13
2023-03-16T12:15:58.530Z,9.34
2023-03-16T12:17:01.226Z,9.39
2023-03-16T12:18:00.597Z,9.56
2023-03-16T12:18:58.973Z,9.49
2023-03-16T12:19:59.126Z,9.31
2023-03-16T12:20:59.344Z,9.20
2023-03-16T12:22:00.116Z,9.27
2023-03-16T12:22:59.690Z,9.53
2023-03-16T12:24:00.601Z,9.61
2023-03-16T12:25:00.636Z,9.66
2023-03-16T12:26:00.609Z,9.67
2023-03-16T12:27:00.400Z,9.63
2023-03-16T12:28:00.577Z,9.81
2023-03-16T12:29:00.711Z,9.82
2023-03-16T12:30:02.585Z,9.68
2023-03-16T12:31:01.112Z,9.68
2023-03-16T12:32:02.065Z,9.66
2023-03-16T12:33:01.552Z,9.70
2023-03-16T12:34:01.666Z,9.71
2023-03-16T12:35:01.879Z,9.79
2023-03-16T12:36:02.096Z,9.99
2023-03-16T12:37:02.299Z,10.00
2023-03-16T12:38:02.508Z,10.22
2023-03-16T12:39:02.695Z,9.99
2023-03-16T12:40:02.875Z,10.03
2023-03-16T12:41:04.561Z,10.18
2023-03-16T12:42:03.215Z,10.37
2023-03-16T12:43:03.372Z,10.53
2023-03-16T12:44:03.554Z,10.73
2023-03-16T12:45:03.765Z,10.63
2023-03-16T12:46:05.076Z,10.56
2023-03-16T12:47:04.099Z,10.46
2023-03-16T12:48:05.115Z,10.40
2023-03-16T12:49:04.496Z,10.34
2023-03-16T12:50:04.682Z,10.15
2023-03-16T12:51:05.632Z,10.06
2023-03-16T12:52:06.072Z,9.91
2023-03-16T12:53:05.200Z,9.94
2023-03-16T12:54:05.934Z,9.89
2023-03-16T12:55:06.570Z,10.00
2023-03-16T12:56:05.709Z,10.30
2023-03-16T12:57:05.901Z,10.36
2023-03-16T12:58:06.084Z,10.62
2023-03-16T12:59:07.111Z,10.62
2023-03-16T13:00:07.076Z,10.66
2023-03-16T13:01:07.580Z,10.77
2023-03-16T13:02:07.131Z,10.91
2023-03-16T13:03:07.031Z,11.03
2023-03-16T13:04:07.232Z,11.10
2023-03-16T13:05:08.076Z,11.01
2023-03-16T13:06:08.577Z,11.02
2023-03-16T13:07:09.579Z,10.76
2023-03-16T13:08:07.911Z,10.44
2023-03-16T13:09:08.064Z,10.47
2023-03-16T13:10:08.225Z,10.47
2023-03-16T13:11:08.387Z,10.36
2023-03-16T13:12:08.557Z,10.24
2023-03-16T13:13:09.129Z,10.15
2023-03-16T13:14:08.902Z,10.21
2023-03-16T13:15:09.624Z,10.25
2023-03-16T13:16:09.419Z,10.24
2023-03-16T13:17:09.481Z,10.15
2023-03-16T13:18:09.699Z,10.14
2023-03-16T13:19:10.127Z,9.94
2023-03-16T13:20:11.859Z,9.83